Mandan, North Dakota
Current Conditions -  °F | °C
As of 11:15 PM on Sunday 21 Dec 2014 (Local Time) from KY19 Reporting Station
Moderate Fog Moderate Fog  
Wind Chill: 22°   Ceiling: 200
Heat Index: 28°   Visibility: 0.25mi
Dew Point: 27°   Wind: 6mph
Humidity: 93%   Direction: 140°SE
Pressure: 29.44"   Gusts: NA
Location:  46.83°N, 100.88°W
Report Text: KY19 220615Z AUTO 14005KT 1/4SM FZFG OVC002 M02/M03 A2944 RMK AO2
Loading
Personal Weather Stations






























Interactive Weather Map New forecast layout! Learn more

10-Day Weather Forecast

Advertisements
Track Severe Weather on mobile